Time;durP1;ratioP1;P1;durP2;ratioP2;P2;SDS_P1;SDS_P2;PMS_P1;PMS_P2;Temp;Humidity;BMP_temperature;BMP_pressure;BME280_temperature;BME280_humidity;BME280_pressure;Samples;Min_cycle;Max_cycle;Signal;HPM_P1;HPM_P2
2022/01/15 00:00:58;;;;;;;4.93;4.07;;;18.80;60.10;;;;;;10521870;28;20107;-57
2022/01/15 00:05:59;;;;;;;5.45;3.92;;;18.80;60.10;;;;;;10495901;28;20127;-57
2022/01/15 00:10:59;;;;;;;4.88;4.07;;;18.70;60.40;;;;;;10543308;28;20516;-56
2022/01/15 00:16:26;;;;;;;4.68;3.55;;;18.70;60.30;;;;;;10519956;28;20073;-56
2022/01/15 00:21:27;;;;;;;4.38;3.40;;;18.70;60.30;;;;;;10501068;28;20025;-57
2022/01/15 00:26:28;;;;;;;5.85;4.72;;;18.70;60.20;;;;;;10514073;28;20117;-57
2022/01/15 00:31:29;;;;;;;5.28;4.07;;;18.70;60.30;;;;;;10511985;28;20396;-57
2022/01/15 00:36:30;;;;;;;5.40;3.78;;;18.70;60.20;;;;;;10472754;28;20078;-57
2022/01/15 00:41:31;;;;;;;5.15;3.20;;;18.60;60.20;;;;;;10500353;28;20063;-57
2022/01/15 00:46:32;;;;;;;4.60;3.50;;;18.70;60.20;;;;;;10478883;28;20028;-57
2022/01/15 00:51:32;;;;;;;5.47;3.80;;;18.70;60.30;;;;;;10511190;28;20024;-57
2022/01/15 00:56:33;;;;;;;4.35;3.45;;;18.70;60.20;;;;;;10535419;28;20573;-57
2022/01/15 01:01:34;;;;;;;4.40;3.20;;;18.70;60.30;;;;;;10495166;28;20610;-57
2022/01/15 01:06:35;;;;;;;4.57;3.55;;;18.70;60.10;;;;;;10528697;28;20040;-58
2022/01/15 01:11:46;;;;;;;3.47;2.88;;;18.70;60.10;;;;;;10524105;28;20440;-57
2022/01/15 01:27:39;;;;;;;4.20;3.03;;;18.60;60.10;;;;;;10512678;28;20078;-57
2022/01/15 01:33:15;;;;;;;4.05;3.22;;;18.70;60.00;;;;;;10483845;28;20036;-57
2022/01/15 01:38:29;;;;;;;3.60;2.78;;;18.70;60.10;;;;;;10486400;28;20039;-57
2022/01/15 01:48:36;;;;;;;3.80;2.58;;;18.60;60.00;;;;;;10508221;28;20032;-57
2022/01/15 01:53:37;;;;;;;3.72;2.47;;;18.70;59.90;;;;;;10494655;28;20028;-59
2022/01/15 01:58:38;;;;;;;3.97;2.97;;;18.60;60.10;;;;;;10504085;28;20041;-57
2022/01/15 02:03:39;;;;;;;4.80;2.78;;;18.70;60.00;;;;;;10527965;28;20039;-57
2022/01/15 02:08:40;;;;;;;4.72;2.75;;;18.60;60.10;;;;;;10526343;28;20051;-57
2022/01/15 02:13:44;;;;;;;3.80;2.55;;;18.70;60.00;;;;;;10498815;28;20108;-57
2022/01/15 02:18:45;;;;;;;3.63;2.50;;;18.70;60.00;;;;;;10497583;28;20467;-56
2022/01/15 02:23:51;;;;;;;4.30;2.85;;;18.70;59.90;;;;;;10489231;28;20048;-57
2022/01/15 02:29:00;;;;;;;3.30;2.50;;;18.70;59.90;;;;;;10519175;28;20047;-57
2022/01/15 02:34:03;;;;;;;;;;;18.70;59.90;;;;;;10507384;28;20055;-57
2022/01/15 02:39:06;;;;;;;3.80;2.75;;;18.70;59.90;;;;;;10507888;28;19919;-56
2022/01/15 02:44:15;;;;;;;3.33;2.40;;;18.70;59.80;;;;;;10498020;28;20032;-57
2022/01/15 02:49:17;;;;;;;3.80;2.63;;;18.70;59.80;;;;;;10500434;28;20028;-57
2022/01/15 02:54:18;;;;;;;3.25;2.45;;;18.70;59.70;;;;;;10502731;28;20032;-57
2022/01/15 02:59:25;;;;;;;3.28;2.60;;;18.70;59.70;;;;;;10501886;28;20473;-57
2022/01/15 03:04:25;;;;;;;3.97;2.92;;;18.70;59.70;;;;;;10502899;28;20033;-57
2022/01/15 03:09:26;;;;;;;3.28;2.42;;;18.70;59.80;;;;;;10501833;28;20547;-57
2022/01/15 03:14:30;;;;;;;3.08;2.42;;;18.60;59.70;;;;;;10514560;28;20111;-58
2022/01/15 03:19:31;;;;;;;2.80;2.10;;;18.60;59.70;;;;;;10495805;28;20033;-56
2022/01/15 03:24:31;;;;;;;3.42;2.38;;;18.70;59.80;;;;;;10478111;28;20036;-57
2022/01/15 03:29:32;;;;;;;3.33;2.38;;;18.70;59.60;;;;;;10481734;28;20460;-56
2022/01/15 03:34:33;;;;;;;2.50;1.98;;;18.60;59.70;;;;;;10506433;28;20039;-57
2022/01/15 03:39:35;;;;;;;3.63;2.33;;;18.70;59.60;;;;;;10506180;28;20042;-57
2022/01/15 03:44:36;;;;;;;4.78;2.40;;;18.60;59.60;;;;;;10474351;28;20488;-57
2022/01/15 03:49:38;;;;;;;3.13;2.30;;;18.70;59.50;;;;;;10486075;28;20029;-58
2022/01/15 03:54:39;;;;;;;3.15;2.15;;;18.60;59.50;;;;;;10505778;28;20039;-56
2022/01/15 03:59:40;;;;;;;3.25;1.92;;;18.70;59.40;;;;;;10526991;28;20063;-56
2022/01/15 04:04:41;;;;;;;2.88;2.08;;;18.70;59.50;;;;;;10504250;28;20082;-57
2022/01/15 04:09:42;;;;;;;3.13;1.88;;;18.70;59.50;;;;;;10515317;28;21188;-57
2022/01/15 04:14:43;;;;;;;2.70;1.65;;;18.60;59.60;;;;;;10511341;28;20085;-57
2022/01/15 04:19:43;;;;;;;3.33;2.10;;;18.70;59.50;;;;;;10506700;28;20511;-56
2022/01/15 04:24:44;;;;;;;2.47;1.98;;;18.60;59.60;;;;;;10503188;28;20046;-58
2022/01/15 04:29:45;;;;;;;2.38;1.60;;;18.70;59.50;;;;;;10515547;28;20408;-57
2022/01/15 04:34:47;;;;;;;2.35;1.60;;;18.60;59.50;;;;;;10502060;28;20507;-57
2022/01/15 04:39:49;;;;;;;3.35;1.80;;;18.70;59.40;;;;;;10501889;28;20028;-56
2022/01/15 04:44:50;;;;;;;2.47;1.83;;;18.60;59.50;;;;;;10520480;28;20055;-56
2022/01/15 04:49:51;;;;;;;3.05;2.08;;;18.70;59.50;;;;;;10503119;28;20025;-56
2022/01/15 04:54:52;;;;;;;2.88;1.85;;;18.60;59.50;;;;;;10532413;28;20513;-56
2022/01/15 04:59:52;;;;;;;2.50;1.83;;;18.70;59.30;;;;;;10529214;28;20032;-56
2022/01/15 05:04:53;;;;;;;2.97;1.60;;;18.70;59.30;;;;;;10476235;28;20032;-56
2022/01/15 05:09:54;;;;;;;2.97;1.70;;;18.70;59.30;;;;;;10540773;28;20024;-57
2022/01/15 05:14:55;;;;;;;2.70;1.92;;;18.70;59.30;;;;;;10523745;28;20094;-57
2022/01/15 05:19:55;;;;;;;2.92;1.65;;;18.70;59.20;;;;;;10524039;28;20080;-57
2022/01/15 05:24:56;;;;;;;2.35;1.58;;;18.70;59.30;;;;;;10527364;28;20036;-57
2022/01/15 05:29:57;;;;;;;2.75;1.70;;;18.70;59.30;;;;;;10526926;28;20093;-56
2022/01/15 05:34:57;;;;;;;2.55;1.60;;;18.70;59.30;;;;;;10486125;28;20130;-56
2022/01/15 05:39:58;;;;;;;2.15;1.55;;;18.60;59.20;;;;;;10489772;28;20081;-55
2022/01/15 05:44:59;;;;;;;2.25;1.70;;;18.70;59.30;;;;;;10489405;28;20017;-57
2022/01/15 05:50:00;;;;;;;2.42;1.67;;;18.60;59.20;;;;;;10503115;28;20031;-56
2022/01/15 05:55:01;;;;;;;2.65;1.98;;;18.70;59.30;;;;;;10521257;28;20036;-57
2022/01/15 06:00:03;;;;;;;2.58;1.75;;;18.70;59.20;;;;;;10508504;28;20047;-57
2022/01/15 06:05:04;;;;;;;2.90;1.67;;;18.60;59.20;;;;;;10507750;28;20107;-56
2022/01/15 06:10:06;;;;;;;3.47;1.90;;;18.60;59.10;;;;;;10509241;28;20027;-55
2022/01/15 06:15:07;;;;;;;2.63;1.58;;;18.60;59.10;;;;;;10505799;28;20043;-56
2022/01/15 06:20:11;;;;;;;3.80;2.13;;;18.70;59.00;;;;;;10463801;28;20036;-55
2022/01/15 06:25:12;;;;;;;5.75;2.10;;;18.70;59.60;;;;;;10504182;28;20377;-55
2022/01/15 06:30:13;;;;;;;4.72;1.77;;;18.80;60.40;;;;;;10479669;28;20110;-56
2022/01/15 06:35:14;;;;;;;6.75;2.05;;;18.80;60.10;;;;;;10509229;28;20036;-57
2022/01/15 06:40:16;;;;;;;4.60;1.75;;;18.80;60.40;;;;;;10479961;28;20032;-56
2022/01/15 06:45:16;;;;;;;6.68;2.50;;;18.70;62.00;;;;;;10494511;28;20107;-56
2022/01/15 06:50:17;;;;;;;4.88;1.90;;;18.80;60.80;;;;;;10500162;28;20476;-56
2022/01/15 06:55:18;;;;;;;5.80;2.10;;;18.70;61.20;;;;;;10502769;28;20016;-56
2022/01/15 07:00:19;;;;;;;5.53;2.30;;;18.70;61.10;;;;;;10478669;28;20040;-57
2022/01/15 07:05:20;;;;;;;5.72;1.75;;;18.70;61.50;;;;;;10514989;28;20607;-54
2022/01/15 07:10:21;;;;;;;6.72;2.85;;;18.70;61.10;;;;;;10506377;28;20031;-56
2022/01/15 07:15:22;;;;;;;6.07;2.42;;;18.60;60.90;;;;;;10506135;28;20042;-56
2022/01/15 07:20:22;;;;;;;9.38;2.80;;;18.50;61.40;;;;;;10524347;28;20040;-56
2022/01/15 07:25:23;;;;;;;11.05;2.55;;;18.50;61.10;;;;;;10519575;28;20032;-56
2022/01/15 07:30:24;;;;;;;5.93;2.58;;;18.50;61.10;;;;;;10497933;28;20041;-54
2022/01/15 07:35:25;;;;;;;6.03;2.25;;;18.60;60.80;;;;;;10519813;28;20479;-55
2022/01/15 07:40:26;;;;;;;7.18;2.78;;;18.60;60.60;;;;;;10518271;28;20032;-57
2022/01/15 07:45:27;;;;;;;8.45;3.83;;;18.60;61.00;;;;;;10515202;28;20488;-57
2022/01/15 07:50:27;;;;;;;11.63;2.60;;;18.60;60.90;;;;;;10491167;28;20024;-57
2022/01/15 07:55:28;;;;;;;10.38;2.72;;;18.70;61.10;;;;;;10506386;28;20477;-58
2022/01/15 08:00:29;;;;;;;6.68;2.83;;;18.80;61.10;;;;;;10496341;28;20126;-58
2022/01/15 08:05:30;;;;;;;10.75;3.22;;;18.80;61.40;;;;;;10488118;28;20052;-55
2022/01/15 08:10:31;;;;;;;11.15;3.03;;;18.70;61.10;;;;;;10510963;28;20514;-56
2022/01/15 08:15:33;;;;;;;11.88;3.05;;;18.60;61.10;;;;;;10503469;28;20103;-55
2022/01/15 08:20:34;;;;;;;12.95;3.20;;;18.60;61.20;;;;;;10495153;28;20035;-55
2022/01/15 08:25:35;;;;;;;13.88;4.15;;;18.60;61.00;;;;;;10501613;28;20079;-55
2022/01/15 08:30:36;;;;;;;12.43;3.70;;;18.60;61.00;;;;;;10526936;28;20123;-55
2022/01/15 08:35:37;;;;;;;12.85;4.30;;;18.50;60.90;;;;;;10510412;28;20491;-53
2022/01/15 08:40:39;;;;;;;10.82;4.55;;;18.70;60.90;;;;;;10503699;28;20115;-55
2022/01/15 08:45:40;;;;;;;7.63;3.30;;;18.70;60.90;;;;;;10509331;28;20033;-56
2022/01/15 08:50:40;;;;;;;12.52;3.72;;;18.70;61.20;;;;;;10521693;28;20028;-56
2022/01/15 08:55:41;;;;;;;9.40;3.63;;;18.60;61.70;;;;;;10541364;28;20107;-57
2022/01/15 09:00:42;;;;;;;12.93;3.13;;;18.50;61.90;;;;;;10540256;28;20028;-57
2022/01/15 09:05:42;;;;;;;14.23;3.78;;;18.40;62.40;;;;;;10540181;28;20035;-57
2022/01/15 09:10:43;;;;;;;13.88;4.30;;;18.40;62.50;;;;;;10538318;28;20024;-57
2022/01/15 09:15:44;;;;;;;9.48;4.10;;;18.40;62.60;;;;;;10528005;28;20035;-56
2022/01/15 09:20:46;;;;;;;11.13;3.65;;;18.40;62.70;;;;;;10495289;28;20044;-57
2022/01/15 09:25:48;;;;;;;12.27;4.07;;;18.40;62.80;;;;;;10492155;28;20538;-56
2022/01/15 09:30:49;;;;;;;14.20;5.00;;;18.40;62.70;;;;;;10500750;28;20036;-54
2022/01/15 09:35:50;;;;;;;19.42;4.55;;;18.40;63.00;;;;;;10483891;28;20123;-55
2022/01/15 09:40:51;;;;;;;11.10;4.95;;;18.40;62.50;;;;;;10525336;28;20111;-54
2022/01/15 09:45:52;;;;;;;20.40;4.70;;;18.40;62.20;;;;;;10538704;28;20028;-55
2022/01/15 09:50:53;;;;;;;20.45;5.13;;;18.40;62.40;;;;;;10508428;28;20034;-54
2022/01/15 09:55:54;;;;;;;15.40;4.63;;;18.40;62.60;;;;;;10482857;28;20048;-55
2022/01/15 10:00:54;;;;;;;26.65;5.22;;;18.40;62.70;;;;;;10527295;28;20123;-55
2022/01/15 10:05:55;;;;;;;14.90;5.28;;;18.40;63.00;;;;;;10506469;28;20112;-56
2022/01/15 10:10:58;;;;;;;22.90;5.65;;;18.40;63.30;;;;;;10516088;28;20082;-58
2022/01/15 10:15:59;;;;;;;20.83;6.35;;;18.40;62.60;;;;;;10503391;28;20119;-54
2022/01/15 10:21:23;;;;;;;17.45;4.95;;;18.30;62.30;;;;;;10510142;28;20556;-56
2022/01/15 10:26:31;;;;;;;18.20;5.22;;;18.30;62.00;;;;;;10496398;28;20203;-57
2022/01/15 10:31:40;;;;;;;15.40;5.13;;;18.30;61.90;;;;;;10513364;28;20044;-54
2022/01/15 10:36:45;;;;;;;13.68;4.35;;;18.40;61.10;;;;;;10519417;28;20308;-56
2022/01/15 10:41:48;;;;;;;16.02;5.05;;;18.40;60.80;;;;;;10497165;28;20393;-56
2022/01/15 10:46:49;;;;;;;14.77;5.00;;;18.50;60.70;;;;;;10478884;28;20101;-57
2022/01/15 10:52:14;;;;;;;17.55;5.68;;;18.50;60.40;;;;;;10462346;28;20032;-56
2022/01/15 10:57:17;;;;;;;11.93;5.57;;;18.40;60.40;;;;;;10497530;28;20036;-56
2022/01/15 11:02:21;;;;;;;12.32;5.72;;;18.30;60.50;;;;;;10490634;28;20032;-56
2022/01/15 11:07:22;;;;;;;14.50;5.72;;;18.40;60.80;;;;;;10503674;28;20086;-56
2022/01/15 11:12:30;;;;;;;14.70;6.28;;;18.50;60.40;;;;;;10489775;28;20426;-56
2022/01/15 11:17:31;;;;;;;19.73;5.38;;;18.40;60.20;;;;;;10495014;28;20040;-55
2022/01/15 11:22:33;;;;;;;12.65;5.53;;;18.50;60.80;;;;;;10520101;28;20060;-56
2022/01/15 11:27:35;;;;;;;15.80;6.63;;;18.40;60.10;;;;;;10494909;28;20036;-56
2022/01/15 11:32:37;;;;;;;15.32;5.68;;;18.40;60.20;;;;;;10506123;28;20143;-55
2022/01/15 11:37:49;;;;;;;10.63;5.35;;;18.40;59.90;;;;;;10486230;28;20078;-54
2022/01/15 11:42:49;;;;;;;11.98;5.45;;;18.50;59.60;;;;;;10509485;28;20040;-55
2022/01/15 11:48:24;;;;;;;9.13;5.82;;;18.50;60.10;;;;;;10498864;28;20487;-58
2022/01/15 11:53:47;;;;;;;10.90;5.50;;;18.50;59.90;;;;;;10516737;28;20020;-53
2022/01/15 11:58:48;;;;;;;12.70;5.15;;;18.70;61.50;;;;;;10500384;28;20043;-55
2022/01/15 12:03:49;;;;;;;13.93;5.30;;;18.90;60.80;;;;;;10520582;28;20020;-56
2022/01/15 12:08:49;;;;;;;19.67;6.95;;;19.00;61.40;;;;;;10505170;28;20036;-55
2022/01/15 12:13:51;;;;;;;17.27;7.15;;;19.10;62.10;;;;;;10491674;28;20491;-53
2022/01/15 12:18:55;;;;;;;13.95;6.97;;;19.10;62.40;;;;;;10517500;28;20055;-54
2022/01/15 12:23:56;;;;;;;17.35;8.23;;;19.10;62.50;;;;;;10507707;28;20032;-55
2022/01/15 12:28:56;;;;;;;12.63;7.50;;;19.00;62.90;;;;;;10471934;28;20488;-54
2022/01/15 12:33:57;;;;;;;16.08;7.50;;;18.60;64.10;;;;;;10501283;28;20106;-55
2022/01/15 12:38:58;;;;;;;15.93;6.95;;;18.40;64.70;;;;;;10505106;28;20101;-55
2022/01/15 12:44:00;;;;;;;13.07;7.28;;;18.40;64.20;;;;;;10523431;28;20048;-55
2022/01/15 12:49:02;;;;;;;14.43;7.60;;;18.40;64.30;;;;;;10508852;28;20032;-54
2022/01/15 12:54:03;;;;;;;13.85;7.10;;;18.30;64.20;;;;;;10506645;28;20017;-51
2022/01/15 12:59:03;;;;;;;13.05;7.53;;;18.10;63.70;;;;;;10526681;28;20391;-52
2022/01/15 13:04:11;;;;;;;18.55;7.50;;;18.30;64.60;;;;;;10519910;28;20437;-53
2022/01/15 13:09:12;;;;;;;11.68;6.25;;;18.40;63.10;;;;;;10527276;28;20031;-54
2022/01/15 13:14:12;;;;;;;14.73;7.68;;;18.50;63.00;;;;;;10539774;28;20112;-55
2022/01/15 13:19:13;;;;;;;17.63;7.45;;;18.50;62.70;;;;;;10513254;28;20344;-51
2022/01/15 13:24:14;;;;;;;16.77;7.38;;;18.40;63.30;;;;;;10516856;28;20032;-54
2022/01/15 13:29:19;;;;;;;16.02;6.72;;;18.40;63.30;;;;;;10500514;28;20389;-55
2022/01/15 13:34:34;;;;;;;11.50;6.95;;;18.30;63.30;;;;;;10505227;28;20028;-54
2022/01/15 13:39:36;;;;;;;13.30;6.53;;;18.30;63.10;;;;;;10526280;28;20028;-56
2022/01/15 13:44:36;;;;;;;16.13;7.53;;;18.30;63.10;;;;;;10522863;28;20056;-55
2022/01/15 13:55:06;;;;;;;14.27;7.22;;;18.20;63.30;;;;;;10505354;28;20044;-56
2022/01/15 14:00:13;;;;;;;20.33;8.00;;;18.10;62.90;;;;;;10484272;28;20391;-55
2022/01/15 14:05:21;;;;;;;19.10;8.55;;;18.40;62.30;;;;;;10497231;28;20044;-54
2022/01/15 14:10:25;;;;;;;19.35;8.45;;;18.40;62.20;;;;;;10512426;28;20035;-56
2022/01/15 14:15:43;;;;;;;20.60;8.68;;;18.40;62.40;;;;;;10495389;28;20021;-54
2022/01/15 14:26:23;;;;;;;13.32;7.30;;;18.50;62.00;;;;;;10524904;28;20052;-53
2022/01/15 14:31:24;;;;;;;12.40;7.20;;;18.50;62.00;;;;;;10503543;28;20113;-56
2022/01/15 14:36:25;;;;;;;11.98;6.93;;;18.50;62.00;;;;;;10484128;28;20073;-54
2022/01/15 14:41:25;;;;;;;19.20;6.95;;;18.50;62.00;;;;;;10492091;28;20032;-55
2022/01/15 14:46:27;;;;;;;10.05;6.28;;;18.50;61.90;;;;;;10502689;28;20151;-53
2022/01/15 14:51:28;;;;;;;11.77;7.13;;;18.40;62.10;;;;;;10478489;28;20020;-55
2022/01/15 14:56:28;;;;;;;12.65;7.45;;;18.40;62.10;;;;;;10478321;28;20056;-53
2022/01/15 15:01:30;;;;;;;17.25;7.78;;;18.50;62.00;;;;;;10488581;28;20075;-55
2022/01/15 15:06:31;;;;;;;14.25;7.55;;;18.40;62.30;;;;;;10532557;28;20028;-54
2022/01/15 15:11:36;;;;;;;17.63;8.18;;;18.20;62.60;;;;;;10482981;28;20504;-53
2022/01/15 15:16:37;;;;;;;18.17;7.65;;;18.40;62.70;;;;;;10497841;28;20040;-51
2022/01/15 15:21:38;;;;;;;21.98;7.80;;;18.50;62.90;;;;;;10482129;28;20522;-55
2022/01/15 15:26:38;;;;;;;20.73;8.32;;;18.60;62.90;;;;;;10514421;28;20452;-54
2022/01/15 15:31:39;;;;;;;24.98;8.82;;;18.50;63.30;;;;;;10520687;28;20432;-53
2022/01/15 15:36:40;;;;;;;21.88;9.30;;;18.60;63.10;;;;;;10530801;28;20032;-53
2022/01/15 15:41:42;;;;;;;23.67;8.93;;;18.60;63.40;;;;;;10533097;28;20032;-54
2022/01/15 15:46:43;;;;;;;18.00;8.77;;;18.60;63.30;;;;;;10510462;28;20078;-54
2022/01/15 15:51:44;;;;;;;19.52;9.90;;;18.50;63.40;;;;;;10502645;28;20061;-55
2022/01/15 15:56:45;;;;;;;18.77;8.88;;;18.50;63.30;;;;;;10507786;28;20067;-56
2022/01/15 16:01:46;;;;;;;17.02;9.10;;;18.40;63.50;;;;;;10527766;28;20020;-54
2022/01/15 16:06:46;;;;;;;22.35;9.10;;;18.40;63.30;;;;;;10503900;28;20033;-52
2022/01/15 16:11:47;;;;;;;19.50;8.52;;;18.30;63.60;;;;;;10506742;28;20490;-55
2022/01/15 16:16:48;;;;;;;18.60;9.65;;;18.50;63.70;;;;;;10522372;28;20499;-56
2022/01/15 16:21:49;;;;;;;20.08;9.80;;;18.50;63.00;;;;;;10497236;28;20024;-52
2022/01/15 16:26:49;;;;;;;16.85;9.55;;;18.40;62.40;;;;;;10521827;28;20469;-53
2022/01/15 16:31:50;;;;;;;19.27;10.75;;;18.20;62.50;;;;;;10518655;28;20063;-56
2022/01/15 16:36:54;;;;;;;16.98;9.93;;;18.40;61.70;;;;;;10504134;28;20032;-52
2022/01/15 16:41:55;;;;;;;20.55;11.07;;;18.50;60.50;;;;;;10485935;28;20031;-53
2022/01/15 16:46:56;;;;;;;18.20;11.07;;;18.50;60.10;;;;;;10517690;28;20068;-54
2022/01/15 16:51:57;;;;;;;14.82;11.60;;;18.60;59.80;;;;;;10529506;28;20024;-54
2022/01/15 16:56:58;;;;;;;13.27;9.38;;;18.70;59.20;;;;;;10522594;28;20036;-55
2022/01/15 17:02:00;;;;;;;14.73;11.10;;;18.90;58.50;;;;;;10521599;28;20039;-49
2022/01/15 17:07:00;;;;;;;16.42;11.55;;;19.00;58.20;;;;;;10525379;28;20158;-52
2022/01/15 17:12:01;;;;;;;17.92;11.85;;;18.90;61.00;;;;;;10512711;28;20024;-55
2022/01/15 17:17:02;;;;;;;15.98;11.23;;;19.10;60.40;;;;;;10469233;28;20544;-52
2022/01/15 17:22:04;;;;;;;14.82;11.40;;;19.20;59.20;;;;;;10515714;28;20081;-54
2022/01/15 17:27:05;;;;;;;14.57;10.25;;;19.10;59.20;;;;;;10523423;28;20369;-52
2022/01/15 17:32:06;;;;;;;17.65;11.38;;;19.20;58.00;;;;;;10441849;28;20045;-55
2022/01/15 17:37:08;;;;;;;14.77;10.25;;;19.30;58.20;;;;;;10418272;28;20029;-54
2022/01/15 17:42:09;;;;;;;17.70;10.13;;;19.40;58.20;;;;;;10442877;28;20029;-55
2022/01/15 17:47:09;;;;;;;11.80;8.85;;;19.30;57.90;;;;;;10452653;28;20036;-56
2022/01/15 17:52:10;;;;;;;12.55;8.52;;;19.20;58.20;;;;;;10451816;28;20040;-54
2022/01/15 17:57:11;;;;;;;14.98;9.10;;;19.10;58.80;;;;;;10437438;28;20732;-55
2022/01/15 18:02:12;;;;;;;12.90;10.07;;;19.00;59.30;;;;;;10415448;28;20030;-55
2022/01/15 18:07:13;;;;;;;15.57;9.25;;;18.90;59.60;;;;;;10440756;28;20034;-56
2022/01/15 18:12:14;;;;;;;14.32;9.00;;;18.80;60.10;;;;;;10436044;28;20033;-54
2022/01/15 18:17:15;;;;;;;15.90;8.93;;;18.70;60.50;;;;;;10426829;28;20481;-54
2022/01/15 18:22:16;;;;;;;12.95;9.30;;;18.70;60.40;;;;;;10428632;28;20113;-55
2022/01/15 18:27:16;;;;;;;10.65;8.35;;;18.60;60.40;;;;;;10414603;28;20037;-55
2022/01/15 18:32:17;;;;;;;14.57;9.15;;;18.80;60.50;;;;;;10426722;28;20367;-56
2022/01/15 18:37:19;;;;;;;12.15;8.52;;;18.80;60.60;;;;;;10444276;28;20083;-56
2022/01/15 18:42:20;;;;;;;14.18;9.25;;;18.70;61.30;;;;;;10436572;28;20055;-56
2022/01/15 18:47:21;;;;;;;12.13;8.52;;;18.70;61.50;;;;;;10428276;28;20033;-54
2022/01/15 18:52:22;;;;;;;12.30;8.73;;;18.70;61.40;;;;;;10434392;28;20031;-54
2022/01/15 18:57:24;;;;;;;13.98;8.32;;;18.70;61.00;;;;;;10431316;28;20037;-55
2022/01/15 19:02:25;;;;;;;10.30;7.53;;;18.60;61.60;;;;;;10441445;28;20025;-54
2022/01/15 19:07:26;;;;;;;15.15;9.75;;;18.70;61.30;;;;;;10431725;28;20045;-55
2022/01/15 19:12:27;;;;;;;12.02;8.23;;;18.70;61.20;;;;;;10418709;28;20060;-53
2022/01/15 19:17:28;;;;;;;12.82;9.05;;;18.60;61.40;;;;;;10412397;28;20036;-54
2022/01/15 19:22:28;;;;;;;11.77;8.10;;;18.50;61.60;;;;;;10412487;28;20029;-55
2022/01/15 19:27:29;;;;;;;10.88;8.23;;;18.70;61.50;;;;;;10425666;28;20041;-55
2022/01/15 19:32:30;;;;;;;9.90;7.88;;;18.70;61.60;;;;;;10411532;28;20052;-55
2022/01/15 19:37:31;;;;;;;12.07;8.13;;;18.60;61.90;;;;;;10417875;28;20064;-55
2022/01/15 19:42:31;;;;;;;10.18;8.32;;;18.60;61.90;;;;;;10411300;28;20052;-55
2022/01/15 19:47:33;;;;;;;9.80;8.07;;;18.60;62.00;;;;;;10427475;28;20021;-55
2022/01/15 19:52:34;;;;;;;12.02;7.38;;;18.60;62.00;;;;;;10421808;28;20025;-56
2022/01/15 19:57:34;;;;;;;11.48;8.10;;;18.60;62.10;;;;;;10417750;28;20389;-55
2022/01/15 20:02:35;;;;;;;9.30;7.75;;;18.60;62.00;;;;;;10443748;28;20041;-56
2022/01/15 20:07:37;;;;;;;9.38;7.32;;;18.60;61.90;;;;;;10446786;28;20025;-55
2022/01/15 20:12:38;;;;;;;9.25;7.22;;;18.60;62.00;;;;;;10427825;28;20040;-55
2022/01/15 20:17:38;;;;;;;9.73;7.85;;;18.50;62.00;;;;;;10422313;28;20048;-55
2022/01/15 20:22:40;;;;;;;9.05;7.93;;;18.50;62.20;;;;;;10415596;28;20140;-56
2022/01/15 20:27:41;;;;;;;9.88;7.88;;;18.50;62.20;;;;;;10431959;28;20040;-55
2022/01/15 20:32:45;;;;;;;9.70;7.47;;;18.60;62.00;;;;;;10504141;28;20114;-54
2022/01/15 20:37:46;;;;;;;8.85;7.07;;;18.60;62.00;;;;;;10493835;28;20055;-54
2022/01/15 20:42:47;;;;;;;8.95;7.20;;;18.50;62.00;;;;;;10488965;28;20032;-55
2022/01/15 20:47:48;;;;;;;8.55;6.75;;;18.50;61.90;;;;;;10513300;28;20136;-55
2022/01/15 20:52:49;;;;;;;9.60;6.88;;;18.50;62.00;;;;;;10534383;28;20240;-54
2022/01/15 20:57:50;;;;;;;10.27;7.65;;;18.50;62.00;;;;;;10509470;28;20125;-55
2022/01/15 21:02:51;;;;;;;11.32;6.97;;;18.40;61.80;;;;;;10525887;28;20027;-56
2022/01/15 21:07:54;;;;;;;7.72;6.05;;;18.40;61.90;;;;;;10505631;28;20033;-56
2022/01/15 21:12:59;;;;;;;9.73;7.00;;;18.40;61.70;;;;;;10494620;28;20039;-55
2022/01/15 21:18:00;;;;;;;8.10;6.78;;;18.50;61.60;;;;;;10497633;28;20032;-56
2022/01/15 21:23:00;;;;;;;7.95;6.13;;;18.50;61.60;;;;;;10502757;28;20036;-55
2022/01/15 21:28:01;;;;;;;8.20;6.30;;;18.40;61.60;;;;;;10520926;28;20514;-55
2022/01/15 21:33:04;;;;;;;10.05;6.47;;;18.40;61.60;;;;;;10497727;28;20115;-55
2022/01/15 21:38:05;;;;;;;8.32;5.82;;;18.40;61.60;;;;;;10482184;28;20086;-55
2022/01/15 21:43:07;;;;;;;10.10;6.70;;;18.30;61.50;;;;;;10474505;28;20032;-55
2022/01/15 21:48:08;;;;;;;8.05;6.43;;;18.40;61.40;;;;;;10541136;28;20020;-55
2022/01/15 21:53:09;;;;;;;7.18;6.15;;;18.40;61.30;;;;;;10497706;28;20040;-56
2022/01/15 21:58:09;;;;;;;7.25;5.93;;;18.40;61.40;;;;;;10494754;28;20094;-55
2022/01/15 22:03:10;;;;;;;6.93;5.53;;;18.40;61.40;;;;;;10508508;28;20089;-55
2022/01/15 22:08:11;;;;;;;6.70;5.15;;;18.30;61.40;;;;;;10484141;28;20572;-55
2022/01/15 22:13:13;;;;;;;7.45;5.68;;;18.30;61.20;;;;;;10492171;28;20123;-55
2022/01/15 22:18:13;;;;;;;8.57;5.88;;;18.40;61.10;;;;;;10484713;28;20021;-55
2022/01/15 22:23:14;;;;;;;8.80;5.80;;;18.50;60.80;;;;;;10501867;28;20040;-55
2022/01/15 22:28:15;;;;;;;8.77;6.30;;;18.50;60.80;;;;;;10494751;28;20469;-55
2022/01/15 22:33:16;;;;;;;6.43;5.10;;;18.50;60.60;;;;;;10517631;28;20028;-55
2022/01/15 22:38:17;;;;;;;7.75;6.28;;;18.50;60.40;;;;;;10488530;28;20028;-55
2022/01/15 22:43:17;;;;;;;6.85;5.18;;;18.40;60.40;;;;;;10507093;28;20028;-56
2022/01/15 22:48:19;;;;;;;6.40;5.05;;;18.50;60.50;;;;;;10485929;28;20178;-55
2022/01/15 22:53:21;;;;;;;7.65;5.90;;;18.50;60.30;;;;;;10501320;28;20393;-55
2022/01/15 22:58:23;;;;;;;6.28;4.75;;;18.50;60.40;;;;;;10501939;28;20468;-55
2022/01/15 23:03:24;;;;;;;6.20;5.28;;;18.50;60.20;;;;;;10478313;28;20453;-56
2022/01/15 23:08:25;;;;;;;6.93;5.20;;;18.50;60.20;;;;;;10483592;28;20047;-55
2022/01/15 23:13:43;;;;;;;6.70;5.20;;;18.60;60.10;;;;;;10476728;28;20388;-55
2022/01/15 23:18:44;;;;;;;6.72;5.28;;;18.60;60.10;;;;;;10540436;28;20038;-55
2022/01/15 23:23:49;;;;;;;6.95;5.15;;;18.70;59.90;;;;;;10503359;28;20108;-54
2022/01/15 23:28:50;;;;;;;6.75;5.10;;;18.70;59.60;;;;;;10509018;28;20052;-55
2022/01/15 23:33:52;;;;;;;5.13;4.60;;;18.70;59.80;;;;;;10503619;28;20076;-55
2022/01/15 23:38:53;;;;;;;6.32;5.30;;;18.60;59.70;;;;;;10505332;28;20036;-54
2022/01/15 23:44:03;;;;;;;5.75;5.07;;;18.60;60.00;;;;;;10522764;28;20039;-56
2022/01/15 23:49:03;;;;;;;;;;;18.60;59.90;;;;;;10519257;28;20032;-56
2022/01/15 23:54:05;;;;;;;6.47;5.10;;;18.60;59.90;;;;;;10483792;28;19912;-54
2022/01/15 23:59:09;;;;;;;7.00;5.05;;;18.60;59.70;;;;;;10509832;28;20025;-56
